»·PEaware :: SWA165 KPHX-KSAN

SWA165 :: KPHX-KSAN

FLIGHT INFORMATION

Flight Status: Arrived
Operator:
Southwest Airlines
More flights by this operator :: More flights under this callsign
Pilot: Ryan L. (28399)
Aircraft: BOEING 737-800
(B738)
More flights by this aircraft type
Origin: KPHX Phoenix Sky Harbor Intl
United States
Destination: KSAN San Diego Intl-Lindbergh
United States
More flights between these airports :: More routes between these airports
Route: FYRBD1 MOHAK J18 HOGGZ LUCKI1
File this flight plan on PilotEdge
Remarks:
Altitude:
(Current/Filed)
30,000ft
Speed:
(Current/Filed)
430kts
Departed: 28-Jul-20 12:52 PM
Arrived: 28-Jul-20 01:45 PM
Distance/Time
Traveled:
264nm/0:53
Distance/Time
To Go:
Arrived

Flight Plot

Page will automatically refresh every two minutes.


Map Options




Map Legend


Flown Route
Filed Route
Departure Airport
Arrival Airport
Navaid (VOR, NDB)
Fix

Horizontal Profiles

Position Reports

Time Latitude Longitude Heading Altitude Ground
Speed
28-Jul-20 12:43 33.437006 -112.009765 1 1127ft 0kts
28-Jul-20 12:44 33.437006 -112.009765 1 1127ft 0kts
28-Jul-20 12:45 33.437006 -112.009765 1 1127ft 0kts
28-Jul-20 12:46 33.437006 -112.009765 1 1127ft 0kts
28-Jul-20 12:47 33.437006 -112.009765 1 1127ft 0kts
28-Jul-20 12:48 33.437006 -112.009765 1 1127ft 0kts
28-Jul-20 12:49 33.437006 -112.009765 1 1127ft 0kts
28-Jul-20 12:50 33.437006 -112.009765 1 1127ft 0kts
28-Jul-20 12:51 33.439020 -112.014533 270 1125ft 59kts
28-Jul-20 12:52 33.439813 -112.029629 354 1114ft 0kts
28-Jul-20 12:53 33.439851 -112.029633 354 1114ft 7kts
28-Jul-20 12:54 33.440859 -112.001085 89 1654ft 168kts
28-Jul-20 12:55 33.438006 -111.938188 94 3747ft 194kts
28-Jul-20 12:56 33.429118 -111.872624 130 6419ft 214kts
28-Jul-20 12:57 33.376986 -111.851581 205 9686ft 223kts
28-Jul-20 12:58 33.354956 -111.915719 275 12552ft 239kts
28-Jul-20 12:59 33.361457 -112.000593 262 14897ft 278kts
28-Jul-20 13:00 33.320957 -112.084622 233 17007ft 324kts
28-Jul-20 13:01 33.266907 -112.172601 233 20001ft 336kts
28-Jul-20 13:02 33.210589 -112.264052 233 22709ft 347kts
28-Jul-20 13:03 33.152532 -112.358091 233 25131ft 358kts
28-Jul-20 13:04 33.092458 -112.455168 234 27282ft 369kts
28-Jul-20 13:05 33.030264 -112.555337 234 29164ft 382kts
28-Jul-20 13:06 32.964115 -112.663202 242 29878ft 422kts
28-Jul-20 13:07 32.939592 -112.799148 262 29980ft 471kts
28-Jul-20 13:08 32.919082 -112.951309 261 29868ft 467kts
28-Jul-20 13:09 32.898387 -113.102561 260 29868ft 460kts
28-Jul-20 13:10 32.877569 -113.253437 260 29842ft 461kts
28-Jul-20 13:11 32.856492 -113.404851 260 29842ft 461kts
28-Jul-20 13:12 32.835322 -113.555517 260 29843ft 460kts
28-Jul-20 13:13 32.813986 -113.706068 260 29847ft 460kts
28-Jul-20 13:14 32.792621 -113.855586 260 29846ft 460kts
28-Jul-20 13:15 32.775825 -114.006264 267 29893ft 460kts
28-Jul-20 13:16 32.778495 -114.158813 272 29825ft 461kts
28-Jul-20 13:17 32.784499 -114.310558 272 29834ft 461kts
28-Jul-20 13:18 32.808290 -114.461409 286 29847ft 464kts
28-Jul-20 13:19 32.848342 -114.607558 286 26769ft 477kts
28-Jul-20 13:20 32.878448 -114.757555 267 24946ft 455kts
28-Jul-20 13:21 32.875367 -114.906302 267 23904ft 448kts
28-Jul-20 13:22 32.871924 -115.056146 266 23855ft 448kts
28-Jul-20 13:23 32.868298 -115.205724 266 23850ft 444kts
28-Jul-20 13:25 32.862169 -115.356319 260 23813ft 442kts
28-Jul-20 13:26 32.841986 -115.501651 257 23724ft 444kts
28-Jul-20 13:27 32.819136 -115.642058 257 21665ft 415kts
28-Jul-20 13:28 32.796622 -115.778873 256 19655ft 411kts
28-Jul-20 13:29 32.780514 -115.911616 262 18571ft 411kts
28-Jul-20 13:30 32.770583 -116.043416 262 15947ft 393kts
28-Jul-20 13:31 32.761465 -116.163712 262 12654ft 331kts
28-Jul-20 13:32 32.753257 -116.269968 262 11958ft 330kts
28-Jul-20 13:33 32.744976 -116.376988 262 10822ft 313kts
28-Jul-20 13:34 32.737502 -116.472447 262 10027ft 288kts
28-Jul-20 13:35 32.728970 -116.565984 261 8899ft 281kts
28-Jul-20 13:36 32.720125 -116.658134 262 7998ft 268kts
28-Jul-20 13:37 32.713326 -116.744134 263 6674ft 261kts
28-Jul-20 13:37 32.707606 -116.813289 258 6166ft 219kts
28-Jul-20 13:39 32.684352 -116.893015 250 5032ft 216kts
28-Jul-20 13:40 32.677182 -116.962250 289 5031ft 220kts
28-Jul-20 13:40 32.692870 -117.022524 285 4064ft 257kts
28-Jul-20 13:42 32.711708 -117.101641 284 3096ft 203kts
28-Jul-20 13:43 32.723052 -117.146245 285 539ft 149kts
28-Jul-20 13:43 32.731765 -117.182295 286 27ft 122kts
28-Jul-20 13:45 32.734920 -117.198950 248 25ft 0kts

Navigation Log

Ident Type
Flight plan parsing failed, navigation log unavailable